createdAt,value
2022-11-05T00:01:15.765Z,6.53
2022-11-05T00:04:02.680Z,5.03
2022-11-05T00:06:51.576Z,5.22
2022-11-05T00:09:30.257Z,5.70
2022-11-05T00:12:20.554Z,6.10
2022-11-05T00:15:08.195Z,6.20
2022-11-05T00:17:36.881Z,5.55
2022-11-05T00:20:06.866Z,4.63
2022-11-05T00:22:53.767Z,5.18
2022-11-05T00:25:22.231Z,5.75
2022-11-05T00:27:53.378Z,5.43
2022-11-05T00:30:26.998Z,5.63
2022-11-05T00:32:59.984Z,5.25
2022-11-05T00:35:28.146Z,5.50
2022-11-05T00:37:56.417Z,4.90
2022-11-05T00:40:25.478Z,5.22
2022-11-05T00:43:12.603Z,6.03
2022-11-05T00:45:41.181Z,5.47
2022-11-05T00:48:28.077Z,5.15
2022-11-05T00:50:56.511Z,5.63
2022-11-05T00:53:25.047Z,5.70
2022-11-05T00:55:53.147Z,5.57
2022-11-05T00:58:23.867Z,7.55
2022-11-05T01:00:54.184Z,6.28
2022-11-05T01:03:24.947Z,5.43
2022-11-05T01:05:58.425Z,5.97
2022-11-05T01:08:28.281Z,6.40
2022-11-05T01:10:59.280Z,7.65
2022-11-05T01:13:29.745Z,6.20
2022-11-05T01:15:57.778Z,5.88
2022-11-05T01:18:25.918Z,5.35
2022-11-05T01:20:53.870Z,6.22
2022-11-05T01:23:22.348Z,4.50
2022-11-05T01:25:50.322Z,5.35
2022-11-05T01:28:19.053Z,5.13
2022-11-05T01:30:55.353Z,4.55
2022-11-05T01:33:23.620Z,4.18
2022-11-05T01:35:51.919Z,4.00
2022-11-05T01:38:20.406Z,4.50
2022-11-05T01:40:49.184Z,4.72
2022-11-05T01:43:20.179Z,4.90
2022-11-05T01:45:53.320Z,5.32
2022-11-05T01:48:32.422Z,4.65
2022-11-05T01:51:16.951Z,4.00
2022-11-05T01:53:48.069Z,4.97
2022-11-05T01:56:24.474Z,4.00
2022-11-05T01:59:13.926Z,3.80
2022-11-05T02:01:42.634Z,4.63
2022-11-05T02:04:16.919Z,4.22
2022-11-05T02:06:48.206Z,3.25
2022-11-05T02:09:25.454Z,4.18
2022-11-05T02:11:54.693Z,2.80
2022-11-05T02:14:23.042Z,2.67
2022-11-05T02:17:03.333Z,2.78
2022-11-05T02:19:53.540Z,2.78
2022-11-05T02:22:49.648Z,4.05
2022-11-05T02:25:36.827Z,3.00
2022-11-05T02:28:19.084Z,2.80
2022-11-05T02:30:57.326Z,2.85
2022-11-05T02:33:56.888Z,2.92
2022-11-05T02:36:35.375Z,2.72
2022-11-05T02:39:19.000Z,2.78
2022-11-05T02:44:50.329Z,4.43
2022-11-05T02:47:25.984Z,3.08
2022-11-05T02:50:31.861Z,3.78
2022-11-05T02:53:06.212Z,3.40
2022-11-05T02:55:40.438Z,3.53
2022-11-05T02:58:09.531Z,3.00
2022-11-05T03:00:40.844Z,2.67
2022-11-05T03:03:23.749Z,3.63
2022-11-05T03:05:52.343Z,3.03
2022-11-05T03:08:37.973Z,3.53
2022-11-05T03:11:14.012Z,2.70
2022-11-05T03:13:47.518Z,2.72
2022-11-05T03:19:20.947Z,3.53
2022-11-05T03:21:53.952Z,3.05
2022-11-05T03:24:35.794Z,3.35
2022-11-05T03:27:11.175Z,2.95
2022-11-05T03:29:45.097Z,3.10
2022-11-05T03:32:16.258Z,3.00
2022-11-05T03:34:49.982Z,3.60
2022-11-05T03:37:23.697Z,4.15
2022-11-05T03:39:56.626Z,3.05
2022-11-05T03:42:28.439Z,2.97
2022-11-05T03:44:59.874Z,3.20
2022-11-05T03:47:37.502Z,3.00
2022-11-05T03:50:13.871Z,3.45
2022-11-05T03:53:00.221Z,3.78
2022-11-05T03:55:47.339Z,3.60
2022-11-05T03:58:17.235Z,3.50
2022-11-05T04:00:45.404Z,3.20
2022-11-05T04:03:14.423Z,3.17
2022-11-05T04:05:43.021Z,2.80
2022-11-05T04:08:45.967Z,2.90
2022-11-05T04:11:32.709Z,3.42
2022-11-05T04:14:00.889Z,3.10
2022-11-05T04:16:48.023Z,2.83
2022-11-05T04:19:36.052Z,2.90
2022-11-05T04:22:22.495Z,3.50
2022-11-05T04:24:50.439Z,3.22
2022-11-05T04:27:18.413Z,2.53
2022-11-05T04:30:04.832Z,3.25
2022-11-05T04:32:34.087Z,3.15
2022-11-05T04:35:01.971Z,3.10
2022-11-05T04:37:31.105Z,3.70
2022-11-05T04:39:59.585Z,3.58
2022-11-05T04:42:29.456Z,3.70
2022-11-05T04:44:57.407Z,3.17
2022-11-05T04:47:25.844Z,2.65
2022-11-05T04:49:54.068Z,2.72
2022-11-05T04:52:22.571Z,2.70
2022-11-05T04:54:50.516Z,2.88
2022-11-05T04:57:18.534Z,3.03
2022-11-05T04:59:49.733Z,3.28
2022-11-05T05:02:18.309Z,2.38
2022-11-05T05:04:46.832Z,2.92
2022-11-05T05:07:14.877Z,3.30
2022-11-05T05:09:42.779Z,3.88
2022-11-05T05:12:10.699Z,3.42
2022-11-05T05:14:39.257Z,3.08
2022-11-05T05:17:07.922Z,2.17
2022-11-05T05:19:56.476Z,2.78
2022-11-05T05:22:24.524Z,2.47
2022-11-05T05:24:53.210Z,3.28
2022-11-05T05:27:22.934Z,2.35
2022-11-05T05:29:51.234Z,2.50
2022-11-05T05:32:19.881Z,3.90
2022-11-05T05:34:47.754Z,2.90
2022-11-05T05:37:16.581Z,3.55
2022-11-05T05:39:45.033Z,2.60
2022-11-05T05:42:13.378Z,2.92
2022-11-05T05:44:41.452Z,3.00
2022-11-05T05:47:09.628Z,3.72
2022-11-05T05:49:38.503Z,3.58
2022-11-05T05:52:06.439Z,3.00
2022-11-05T05:54:39.735Z,3.33
2022-11-05T05:57:11.166Z,3.20
2022-11-05T05:59:39.507Z,3.03
2022-11-05T06:02:07.565Z,3.15
2022-11-05T06:04:36.421Z,3.53
2022-11-05T06:07:04.994Z,1.98
2022-11-05T06:09:33.118Z,2.20
2022-11-05T06:12:01.641Z,2.45
2022-11-05T06:14:30.099Z,2.10
2022-11-05T06:16:57.984Z,2.20
2022-11-05T06:19:27.270Z,2.60
2022-11-05T06:21:55.686Z,2.58
2022-11-05T06:24:24.190Z,2.00
2022-11-05T06:26:52.330Z,1.95
2022-11-05T06:29:20.378Z,2.03
2022-11-05T06:31:49.200Z,2.03
2022-11-05T06:34:17.514Z,2.83
2022-11-05T06:36:46.128Z,2.75
2022-11-05T06:39:15.211Z,3.65
2022-11-05T06:42:11.839Z,3.00
2022-11-05T06:44:33.106Z,2.95
2022-11-05T06:47:01.902Z,3.50
2022-11-05T06:49:30.362Z,6.18
2022-11-05T06:51:58.299Z,5.32
2022-11-05T06:54:26.719Z,3.97
2022-11-05T06:56:55.712Z,3.88
2022-11-05T06:59:24.188Z,3.22
2022-11-05T07:02:18.346Z,3.08
2022-11-05T07:04:46.843Z,3.60
2022-11-05T07:07:14.997Z,3.60
2022-11-05T07:09:43.302Z,2.92
2022-11-05T07:12:11.635Z,3.78
2022-11-05T07:14:40.119Z,3.08
2022-11-05T07:17:33.318Z,3.50
2022-11-05T07:20:02.124Z,2.80
2022-11-05T07:22:31.344Z,2.50
2022-11-05T07:24:59.911Z,3.05
2022-11-05T07:27:28.444Z,3.42
2022-11-05T07:29:56.338Z,2.80
2022-11-05T07:32:24.518Z,2.60
2022-11-05T07:34:52.460Z,2.97
2022-11-05T07:37:20.347Z,3.45
2022-11-05T07:39:49.028Z,2.80
2022-11-05T07:42:16.968Z,3.65
2022-11-05T07:44:45.756Z,3.60
2022-11-05T07:47:14.080Z,3.95
2022-11-05T07:49:42.138Z,3.13
2022-11-05T07:52:10.466Z,3.47
2022-11-05T07:54:38.989Z,3.00
2022-11-05T07:57:06.984Z,2.30
2022-11-05T07:59:35.362Z,2.97
2022-11-05T08:02:03.957Z,2.30
2022-11-05T08:04:32.380Z,2.85
2022-11-05T08:07:00.968Z,2.25
2022-11-05T08:09:29.620Z,2.40
2022-11-05T08:12:47.609Z,2.60
2022-11-05T08:15:16.378Z,3.17
2022-11-05T08:17:44.904Z,3.10
2022-11-05T08:20:14.541Z,3.45
2022-11-05T08:22:46.123Z,3.45
2022-11-05T08:25:14.513Z,3.00
2022-11-05T08:27:42.468Z,3.33
2022-11-05T08:30:11.867Z,3.22
2022-11-05T08:32:40.669Z,3.47
2022-11-05T08:35:09.273Z,4.40
2022-11-05T08:37:37.168Z,5.85
2022-11-05T08:40:06.026Z,3.83
2022-11-05T08:42:34.791Z,3.30
2022-11-05T08:45:03.904Z,3.30
2022-11-05T08:47:31.983Z,3.25
2022-11-05T08:50:00.419Z,3.45
2022-11-05T08:52:28.998Z,4.82
2022-11-05T08:54:56.920Z,5.07
2022-11-05T08:57:24.947Z,4.75
2022-11-05T08:59:53.344Z,3.67
2022-11-05T09:02:22.113Z,4.00
2022-11-05T09:04:50.247Z,3.53
2022-11-05T09:07:18.403Z,4.00
2022-11-05T09:09:46.772Z,3.80
2022-11-05T09:12:15.181Z,3.53
2022-11-05T09:14:44.014Z,3.70
2022-11-05T09:17:20.351Z,3.97
2022-11-05T09:19:48.867Z,4.63
2022-11-05T09:22:16.850Z,4.82
2022-11-05T09:24:45.940Z,4.80
2022-11-05T09:27:15.138Z,4.22
2022-11-05T09:29:43.160Z,3.33
2022-11-05T09:32:12.128Z,4.22
2022-11-05T09:34:41.828Z,3.67
2022-11-05T09:37:10.374Z,6.35
2022-11-05T09:39:38.538Z,4.55
2022-11-05T09:42:13.931Z,4.38
2022-11-05T09:44:50.059Z,5.50
2022-11-05T09:47:26.536Z,5.18
2022-11-05T09:49:57.300Z,4.80
2022-11-05T09:52:29.098Z,6.57
2022-11-05T09:54:59.028Z,6.00
2022-11-05T09:57:42.468Z,6.28
2022-11-05T10:02:57.964Z,5.72
2022-11-05T10:05:27.503Z,7.70
2022-11-05T10:08:06.132Z,5.80
2022-11-05T10:10:45.884Z,6.07
2022-11-05T10:13:34.819Z,5.78
2022-11-05T10:16:07.720Z,5.28
2022-11-05T10:18:43.135Z,5.13
2022-11-05T10:21:32.259Z,4.90
2022-11-05T10:24:19.723Z,5.13
2022-11-05T10:26:51.599Z,5.10
2022-11-05T10:29:29.505Z,4.78
2022-11-05T10:32:29.591Z,3.85
2022-11-05T10:35:00.457Z,4.72
2022-11-05T10:37:29.386Z,3.75
2022-11-05T10:39:57.821Z,4.20
2022-11-05T10:42:44.424Z,4.43
2022-11-05T10:45:25.672Z,4.65
2022-11-05T10:48:43.492Z,4.88
2022-11-05T10:51:13.336Z,4.75
2022-11-05T10:53:48.908Z,4.22
2022-11-05T10:56:39.392Z,4.07
2022-11-05T10:59:23.274Z,4.60
2022-11-05T11:02:00.793Z,4.00
2022-11-05T11:04:36.476Z,3.50
2022-11-05T11:07:07.684Z,4.07
2022-11-05T11:09:37.517Z,3.28
2022-11-05T11:12:17.413Z,3.20
2022-11-05T11:15:01.614Z,3.13
2022-11-05T11:17:33.513Z,3.25
2022-11-05T11:20:22.334Z,3.85
2022-11-05T11:23:14.858Z,4.38
2022-11-05T11:25:53.638Z,5.35
2022-11-05T11:28:23.975Z,3.85
2022-11-05T11:31:09.819Z,3.22
2022-11-05T11:33:41.016Z,3.00
2022-11-05T11:36:12.122Z,3.58
2022-11-05T11:38:40.841Z,3.92
2022-11-05T11:41:11.828Z,3.88
2022-11-05T11:43:41.845Z,4.90
2022-11-05T11:46:19.759Z,6.28
2022-11-05T11:48:49.538Z,4.47
2022-11-05T11:51:22.664Z,3.70
2022-11-05T11:56:21.327Z,7.47
2022-11-05T11:58:52.809Z,5.35
2022-11-05T12:01:44.772Z,5.22
2022-11-05T12:04:39.727Z,5.13
2022-11-05T12:07:22.781Z,5.47
2022-11-05T12:10:02.609Z,6.22
2022-11-05T12:12:52.164Z,4.60
2022-11-05T12:15:41.212Z,5.10
2022-11-05T12:18:21.429Z,5.22
2022-11-05T12:21:04.466Z,4.75
2022-11-05T12:23:55.540Z,3.85
2022-11-05T12:26:46.284Z,3.80
2022-11-05T12:29:35.406Z,3.70
2022-11-05T12:32:22.382Z,3.60
2022-11-05T12:35:12.786Z,2.97
2022-11-05T12:37:47.100Z,4.30
2022-11-05T12:40:23.471Z,3.10
2022-11-05T12:43:32.672Z,3.70
2022-11-05T12:46:09.437Z,2.75
2022-11-05T12:49:31.019Z,6.88
2022-11-05T12:52:18.344Z,3.30
2022-11-05T12:55:26.026Z,11.27
2022-11-05T12:58:07.634Z,25.00
2022-11-05T13:00:40.911Z,6.07
2022-11-05T13:03:31.857Z,6.28
2022-11-05T13:06:07.838Z,6.28
2022-11-05T13:09:04.728Z,8.23
2022-11-05T13:11:38.928Z,4.80
2022-11-05T13:14:29.041Z,3.28
2022-11-05T13:17:25.190Z,7.07
2022-11-05T13:20:17.324Z,3.45
2022-11-05T13:22:49.682Z,4.25
2022-11-05T13:25:25.615Z,5.60
2022-11-05T13:28:10.683Z,5.32
2022-11-05T13:30:44.596Z,4.45
2022-11-05T13:33:16.428Z,7.20
2022-11-05T13:36:17.608Z,7.05
2022-11-05T13:39:01.625Z,4.13
2022-11-05T13:41:34.091Z,4.18
2022-11-05T13:44:12.471Z,4.70
2022-11-05T13:46:58.322Z,3.58
2022-11-05T13:49:35.869Z,4.82
2022-11-05T13:52:15.388Z,5.03
2022-11-05T13:55:18.235Z,5.90
2022-11-05T13:58:10.857Z,4.65
2022-11-05T14:01:20.178Z,2.80
2022-11-05T14:03:51.159Z,3.40
2022-11-05T14:06:32.707Z,5.57
2022-11-05T14:09:09.992Z,3.30
2022-11-05T14:11:43.013Z,3.70
2022-11-05T14:14:20.778Z,3.72
2022-11-05T14:17:07.877Z,3.63
2022-11-05T14:19:58.315Z,4.93
2022-11-05T14:22:31.943Z,4.85
2022-11-05T14:25:49.613Z,4.18
2022-11-05T14:28:35.712Z,2.50
2022-11-05T14:31:18.954Z,2.05
2022-11-05T14:34:18.809Z,2.38
2022-11-05T14:37:12.705Z,3.28
2022-11-05T14:39:42.335Z,3.10
2022-11-05T14:42:14.651Z,2.53
2022-11-05T14:45:20.402Z,1.27
2022-11-05T14:47:55.692Z,3.00
2022-11-05T14:50:57.282Z,4.03
2022-11-05T14:53:30.670Z,3.70
2022-11-05T14:56:03.976Z,1.95
2022-11-05T14:58:53.856Z,3.67
2022-11-05T15:01:34.221Z,3.72
2022-11-05T15:04:32.301Z,1.40
2022-11-05T15:07:03.539Z,1.50
2022-11-05T15:09:37.743Z,4.03
2022-11-05T15:12:16.699Z,2.72
2022-11-05T15:14:57.737Z,2.30
2022-11-05T15:17:33.278Z,1.90
2022-11-05T15:20:40.331Z,1.52
2022-11-05T15:23:14.669Z,1.35
2022-11-05T15:26:03.456Z,1.35
2022-11-05T15:28:48.046Z,0.80
2022-11-05T15:31:16.398Z,1.17
2022-11-05T15:33:49.670Z,1.70
2022-11-05T15:41:47.341Z,2.00
2022-11-05T15:44:49.101Z,2.85
2022-11-05T15:47:19.810Z,3.05
2022-11-05T15:50:01.468Z,2.65
2022-11-05T15:52:45.728Z,1.10
2022-11-05T15:55:33.992Z,1.45
2022-11-05T15:58:09.533Z,0.88
2022-11-05T16:00:38.022Z,0.77
2022-11-05T16:03:19.568Z,1.50
2022-11-05T16:05:49.789Z,2.22
2022-11-05T16:08:21.467Z,2.53
2022-11-05T16:10:53.273Z,2.67
2022-11-05T16:13:37.183Z,3.45
2022-11-05T16:16:32.990Z,4.75
2022-11-05T16:19:01.961Z,5.20
2022-11-05T16:21:29.862Z,5.30
2022-11-05T16:23:59.904Z,4.53
2022-11-05T16:27:01.919Z,2.95
2022-11-05T16:29:36.971Z,3.83
2022-11-05T16:32:18.651Z,3.88
2022-11-05T16:34:49.913Z,7.82
2022-11-05T16:37:21.821Z,3.67
2022-11-05T16:39:52.142Z,3.60
2022-11-05T16:42:22.706Z,3.38
2022-11-05T16:44:53.693Z,2.08
2022-11-05T16:47:22.982Z,3.50
2022-11-05T16:49:51.555Z,3.53
2022-11-05T16:52:21.495Z,5.13
2022-11-05T16:55:09.351Z,5.57
2022-11-05T16:57:40.359Z,4.28
2022-11-05T17:00:11.801Z,5.28
2022-11-05T17:02:39.955Z,4.97
2022-11-05T17:05:21.430Z,4.78
2022-11-05T17:07:50.457Z,4.30
2022-11-05T17:10:19.034Z,3.67
2022-11-05T17:12:47.547Z,3.30
2022-11-05T17:15:27.699Z,4.25
2022-11-05T17:17:57.891Z,4.15
2022-11-05T17:20:55.599Z,3.20
2022-11-05T17:23:26.846Z,1.30
2022-11-05T17:26:01.462Z,2.45
2022-11-05T17:28:30.560Z,3.83
2022-11-05T17:31:00.482Z,4.70
2022-11-05T17:33:28.951Z,4.68
2022-11-05T17:35:58.231Z,4.60
2022-11-05T17:38:27.106Z,6.80
2022-11-05T17:40:55.771Z,10.45
2022-11-05T17:43:24.736Z,18.63
2022-11-05T17:45:53.519Z,5.47
2022-11-05T17:48:21.997Z,2.40
2022-11-05T17:50:51.145Z,2.47
2022-11-05T17:53:20.156Z,3.72
2022-11-05T17:55:48.550Z,2.95
2022-11-05T17:58:17.604Z,1.65
2022-11-05T18:00:46.923Z,2.65
2022-11-05T18:03:16.360Z,1.13
2022-11-05T18:05:44.760Z,3.17
2022-11-05T18:08:13.628Z,2.70
2022-11-05T18:10:42.118Z,1.58
2022-11-05T18:13:11.149Z,1.45
2022-11-05T18:15:41.469Z,1.70
2022-11-05T18:18:10.474Z,4.28
2022-11-05T18:20:39.509Z,2.40
2022-11-05T18:23:07.526Z,1.38
2022-11-05T18:25:35.731Z,3.88
2022-11-05T18:28:04.677Z,2.88
2022-11-05T18:30:33.161Z,3.45
2022-11-05T18:33:01.570Z,2.28
2022-11-05T18:35:29.623Z,1.90
2022-11-05T18:37:58.190Z,3.42
2022-11-05T18:40:27.695Z,2.80
2022-11-05T18:42:56.204Z,2.90
2022-11-05T18:45:29.581Z,1.30
2022-11-05T18:48:00.360Z,1.80
2022-11-05T18:50:29.796Z,2.33
2022-11-05T18:52:58.188Z,1.35
2022-11-05T18:55:26.915Z,1.90
2022-11-05T18:57:54.900Z,1.73
2022-11-05T19:00:23.680Z,1.45
2022-11-05T19:02:52.140Z,1.10
2022-11-05T19:05:28.981Z,2.40
2022-11-05T19:07:58.033Z,2.28
2022-11-05T19:10:27.236Z,1.50
2022-11-05T19:12:58.722Z,1.48
2022-11-05T19:15:26.827Z,1.30
2022-11-05T19:17:55.198Z,1.20
2022-11-05T19:20:24.347Z,1.45
2022-11-05T19:22:53.010Z,1.40
2022-11-05T19:25:20.960Z,1.10
2022-11-05T19:27:49.535Z,1.10
2022-11-05T19:30:18.159Z,1.13
2022-11-05T19:32:46.789Z,1.20
2022-11-05T19:35:14.828Z,1.80
2022-11-05T19:37:43.007Z,2.88
2022-11-05T19:40:11.419Z,1.13
2022-11-05T19:42:40.603Z,1.50
2022-11-05T19:45:42.813Z,3.88
2022-11-05T19:47:58.116Z,1.10
2022-11-05T19:50:26.364Z,1.27
2022-11-05T19:52:54.684Z,1.48
2022-11-05T19:55:23.147Z,1.00
2022-11-05T19:57:51.339Z,1.90
2022-11-05T20:00:19.925Z,1.20
2022-11-05T20:02:48.481Z,0.80
2022-11-05T20:05:18.403Z,0.90
2022-11-05T20:07:52.268Z,1.30
2022-11-05T20:10:21.927Z,1.10
2022-11-05T20:12:50.793Z,0.73
2022-11-05T20:15:19.916Z,2.08
2022-11-05T20:17:50.588Z,1.00
2022-11-05T20:20:19.540Z,0.93
2022-11-05T20:22:47.484Z,1.27
2022-11-05T20:25:15.700Z,1.13
2022-11-05T20:27:45.189Z,0.65
2022-11-05T20:30:13.954Z,0.88
2022-11-05T20:32:42.173Z,0.90
2022-11-05T20:35:10.392Z,0.77
2022-11-05T20:37:38.481Z,1.27
2022-11-05T20:40:07.450Z,0.68
2022-11-05T20:42:36.981Z,0.70
2022-11-05T20:45:06.020Z,0.63
2022-11-05T20:47:34.106Z,0.68
2022-11-05T20:50:04.178Z,0.65
2022-11-05T20:52:33.500Z,0.82
2022-11-05T20:55:02.414Z,1.50
2022-11-05T20:57:31.041Z,1.23
2022-11-05T20:59:59.109Z,0.63
2022-11-05T21:02:27.542Z,0.47
2022-11-05T21:04:55.794Z,0.80
2022-11-05T21:07:24.700Z,0.50
2022-11-05T21:09:53.828Z,0.80
2022-11-05T21:12:23.191Z,0.70
2022-11-05T21:14:52.345Z,0.63
2022-11-05T21:17:20.845Z,0.80
2022-11-05T21:19:49.674Z,0.90
2022-11-05T21:22:18.774Z,0.60
2022-11-05T21:24:46.667Z,0.70
2022-11-05T21:27:14.584Z,0.75
2022-11-05T21:29:43.238Z,0.80
2022-11-05T21:32:11.784Z,1.25
2022-11-05T21:34:40.349Z,0.70
2022-11-05T21:37:08.882Z,0.82
2022-11-05T21:39:37.904Z,1.10
2022-11-05T21:42:06.218Z,0.50
2022-11-05T21:44:34.773Z,0.50
2022-11-05T21:47:04.640Z,0.60
2022-11-05T21:49:34.623Z,0.80
2022-11-05T21:52:21.338Z,0.50
2022-11-05T21:55:08.406Z,0.77
2022-11-05T21:57:54.936Z,0.63
2022-11-05T22:00:23.123Z,0.50
2022-11-05T22:02:51.642Z,0.52
2022-11-05T22:05:19.653Z,0.55
2022-11-05T22:07:48.044Z,0.70
2022-11-05T22:10:17.526Z,0.50
2022-11-05T22:12:46.668Z,0.60
2022-11-05T22:15:15.320Z,0.80
2022-11-05T22:17:46.829Z,0.70
2022-11-05T22:20:16.298Z,0.70
2022-11-05T22:22:45.145Z,0.60
2022-11-05T22:25:17.011Z,0.88
2022-11-05T22:27:46.097Z,0.75
2022-11-05T22:30:15.099Z,0.75
2022-11-05T22:32:43.075Z,0.85
2022-11-05T22:35:11.086Z,0.55
2022-11-05T22:37:39.529Z,0.63
2022-11-05T22:40:07.968Z,0.65
2022-11-05T22:42:36.747Z,0.60
2022-11-05T22:45:05.943Z,0.52
2022-11-05T22:47:34.364Z,0.50
2022-11-05T22:50:03.634Z,0.50
2022-11-05T22:52:32.833Z,0.88
2022-11-05T22:55:04.006Z,0.80
2022-11-05T22:57:32.717Z,0.88
2022-11-05T23:00:00.879Z,0.90
2022-11-05T23:02:29.196Z,0.85
2022-11-05T23:04:57.349Z,0.60
2022-11-05T23:07:44.329Z,0.50
2022-11-05T23:10:31.341Z,0.98
2022-11-05T23:12:59.654Z,0.80
2022-11-05T23:15:45.884Z,0.77
2022-11-05T23:18:32.250Z,0.40
2022-11-05T23:21:22.983Z,1.20
2022-11-05T23:24:06.508Z,0.30
2022-11-05T23:26:52.024Z,0.43
2022-11-05T23:29:27.194Z,0.60
2022-11-05T23:32:13.776Z,0.30
2022-11-05T23:34:41.875Z,0.50
2022-11-05T23:37:28.624Z,0.80
2022-11-05T23:39:56.767Z,0.70
2022-11-05T23:42:44.543Z,0.40
2022-11-05T23:45:32.440Z,0.40
2022-11-05T23:48:18.763Z,0.50
2022-11-05T23:50:52.129Z,0.40
2022-11-05T23:53:21.155Z,0.73
2022-11-05T23:55:50.120Z,0.38
2022-11-05T23:58:19.060Z,0.30
